Eagarville, Illinois
Current Conditions -  °F | °C
As of 9:35 AM on Friday 28 Nov 2014 (Local Time) from K3LF Reporting Station
Clear Clear  
Wind Chill: 18°   Ceiling: Unl
Heat Index: 30°   Visibility: 7mi
Dew Point: 25°   Wind: 17mph
Humidity: 81%   Direction: 160°SSE
Pressure: 30.2"   Gusts: 21mph
Location:  39.11°N, 89.78°W
Report Text: K3LF 281535Z AUTO 16015G18KT 7SM CLR M01/M04 A3020 RMK AO2 T10111040
Loading
Personal Weather Stations






























Interactive Weather Map New forecast layout! Learn more

10-Day Weather Forecast

Advertisements
Track Severe Weather on mobile